Time;durP1;ratioP1;P1;durP2;ratioP2;P2;SDS_P1;SDS_P2;PMS_P1;PMS_P2;Temp;Humidity;BMP_temperature;BMP_pressure;BME280_temperature;BME280_humidity;BME280_pressure;Samples;Min_cycle;Max_cycle;Signal;HPM_P1;HPM_P2
2023/10/06 00:01:21;;;;;;;;;;;18.60;57.60;;;;;;5038624;27;92305;-50
2023/10/06 00:03:48;;;;;;;;;;;18.70;57.60;;;;;;5038067;28;92137;-50
2023/10/06 00:06:22;;;;;;;;;;;18.70;57.60;;;;;;5037589;27;93804;-53
2023/10/06 00:08:51;;;;;;;;;;;18.60;57.50;;;;;;5035097;28;92097;-52
2023/10/06 00:11:32;;;;;;;;;;;18.60;57.60;;;;;;5037999;27;92537;-51
2023/10/06 00:14:01;;;;;;;;;;;18.60;57.70;;;;;;5037598;28;91910;-50
2023/10/06 00:16:39;;;;;;;;;;;18.60;57.60;;;;;;5037993;27;92001;-53
2023/10/06 00:19:26;;;;;;;;;;;18.60;57.60;;;;;;5038066;28;93089;-51
2023/10/06 00:22:08;;;;;;;;;;;18.60;57.70;;;;;;5036050;28;93993;-48
2023/10/06 00:24:36;;;;;;;;;;;18.60;57.70;;;;;;5035998;28;95289;-50
2023/10/06 00:27:03;;;;;;;;;;;18.60;57.70;;;;;;5037152;27;93133;-53
2023/10/06 00:29:29;;;;;;;;;;;18.60;57.70;;;;;;5037977;27;92327;-52
2023/10/06 00:32:00;;;;;;;;;;;18.60;57.70;;;;;;5034469;27;94163;-49
2023/10/06 00:34:30;;;;;;;;;;;18.50;57.60;;;;;;5041425;27;93348;-51
2023/10/06 00:36:56;;;;;;;;;;;18.60;57.70;;;;;;5044342;27;92128;-52
2023/10/06 00:39:23;;;;;;;;;;;18.50;57.70;;;;;;5041921;27;92977;-50
2023/10/06 00:42:04;;;;;;;;;;;18.60;57.70;;;;;;5043740;27;92219;-53
2023/10/06 00:44:30;;;;;;;;;;;18.50;57.60;;;;;;5041575;27;94460;-49
2023/10/06 00:46:59;;;;;;;;;;;18.50;57.60;;;;;;5040483;27;95110;-51
2023/10/06 00:49:25;;;;;;;;;;;18.50;57.70;;;;;;5037731;28;92747;-50
2023/10/06 00:51:53;;;;;;;;;;;18.50;57.70;;;;;;5040945;27;92920;-50
2023/10/06 00:54:19;;;;;;;;;;;18.50;57.70;;;;;;5040859;27;93328;-52
2023/10/06 00:56:46;;;;;;;;;;;18.50;57.70;;;;;;5042741;28;92133;-50
2023/10/06 00:59:12;;;;;;;;;;;18.50;57.70;;;;;;5040727;27;94298;-51
2023/10/06 01:01:42;;;;;;;;;;;18.50;57.70;;;;;;5040757;28;92187;-50
2023/10/06 01:06:33;;;;;;;;;;;18.40;57.70;;;;;;5040079;28;92954;-51
2023/10/06 01:09:16;;;;;;;;;;;18.40;57.70;;;;;;5041354;28;92131;-49
2023/10/06 01:11:51;;;;;;;;;;;18.40;57.70;;;;;;5037350;28;93779;-49
2023/10/06 01:14:27;;;;;;;;;;;18.40;57.70;;;;;;5040308;27;94640;-48
2023/10/06 01:16:56;;;;;;;;;;;18.40;57.80;;;;;;5037917;28;92103;-50
2023/10/06 01:21:53;;;;;;;;;;;18.40;57.80;;;;;;5040585;28;92205;-51
2023/10/06 01:24:25;;;;;;;;;;;18.40;57.80;;;;;;5040899;27;93842;-55
2023/10/06 01:26:52;;;;;;;;;;;18.30;57.80;;;;;;5040637;27;92444;-49
2023/10/06 01:29:22;;;;;;;;;;;18.30;57.80;;;;;;5040870;27;93125;-48
2023/10/06 01:31:49;;;;;;;;;;;18.30;57.80;;;;;;5040765;28;93384;-52
2023/10/06 01:34:15;;;;;;;;;;;18.30;57.80;;;;;;5040033;27;94947;-52
2023/10/06 01:36:42;;;;;;;;;;;18.30;57.80;;;;;;5040030;27;93848;-49
2023/10/06 01:39:16;;;;;;;;;;;18.30;57.80;;;;;;5040564;27;95067;-52
2023/10/06 01:41:46;;;;;;;;;;;18.30;57.90;;;;;;5043533;27;93272;-53
2023/10/06 01:44:12;;;;;;;;;;;18.30;58.00;;;;;;5035301;27;92417;-54
2023/10/06 01:46:38;;;;;;;;;;;18.30;57.90;;;;;;5040154;28;93361;-52
2023/10/06 01:49:04;;;;;;;;;;;18.30;57.90;;;;;;5040737;27;92132;-54
2023/10/06 01:51:38;;;;;;;;;;;18.30;57.90;;;;;;5040275;27;92900;-51
2023/10/06 01:54:07;;;;;;;;;;;18.30;58.00;;;;;;5040513;28;92658;-50
2023/10/06 01:56:35;;;;;;;;;;;18.20;57.90;;;;;;5040463;28;92191;-50
2023/10/06 01:59:01;;;;;;;;;;;18.20;58.00;;;;;;5039924;27;93978;-52
2023/10/06 02:01:27;;;;;;;;;;;18.20;58.00;;;;;;5039015;28;94204;-51
2023/10/06 02:03:52;;;;;;;;;;;18.20;57.50;;;;;;5043478;28;92153;-52
2023/10/06 02:06:18;;;;;;;;;;;18.20;58.00;;;;;;5039622;27;93321;-50
2023/10/06 02:08:49;;;;;;;;;;;18.20;58.00;;;;;;5040006;28;92210;-49
2023/10/06 02:11:15;;;;;;;;;;;18.20;58.00;;;;;;5040163;27;93907;-49
2023/10/06 02:13:40;;;;;;;;;;;18.10;58.00;;;;;;5039333;27;93287;-50
2023/10/06 02:16:06;;;;;;;;;;;18.10;58.00;;;;;;5040247;28;92123;-49
2023/10/06 02:18:39;;;;;;;;;;;18.10;58.00;;;;;;5040212;27;94458;-53
2023/10/06 02:21:06;;;;;;;;;;;18.10;58.00;;;;;;5035962;28;94650;-48
2023/10/06 02:23:37;;;;;;;;;;;18.10;58.00;;;;;;5039378;27;92632;-52
2023/10/06 02:26:06;;;;;;;;;;;18.10;58.10;;;;;;5041931;28;94388;-52
2023/10/06 02:28:32;;;;;;;;;;;18.10;58.10;;;;;;5039546;27;92334;-54
2023/10/06 02:31:03;;;;;;;;;;;18.10;58.10;;;;;;5036051;28;92546;-52
2023/10/06 02:33:29;;;;;;;;;;;18.10;58.10;;;;;;5039589;27;93578;-51
2023/10/06 02:35:56;;;;;;;;;;;18.10;58.10;;;;;;5039738;27;92168;-51
2023/10/06 02:38:21;;;;;;;;;;;18.10;58.10;;;;;;5037960;28;93964;-52
2023/10/06 02:40:48;;;;;;;;;;;18.10;58.30;;;;;;5039303;28;93469;-50
2023/10/06 02:43:20;;;;;;;;;;;18.00;58.10;;;;;;5040137;27;91345;-51
2023/10/06 02:45:45;;;;;;;;;;;18.00;58.10;;;;;;5042533;27;92436;-52
2023/10/06 02:48:14;;;;;;;;;;;18.00;58.10;;;;;;5042329;27;92431;-50
2023/10/06 02:50:46;;;;;;;;;;;18.00;58.10;;;;;;5038907;27;94251;-53
2023/10/06 02:53:20;;;;;;;;;;;18.00;58.20;;;;;;5034910;28;93317;-53
2023/10/06 02:55:48;;;;;;;;;;;18.00;58.20;;;;;;5039491;28;92930;-52
2023/10/06 02:58:24;;;;;;;;;;;18.00;58.20;;;;;;5039646;28;92541;-52
2023/10/06 03:00:55;;;;;;;;;;;18.00;58.20;;;;;;5038413;27;94764;-51
2023/10/06 03:03:26;;;;;;;;;;;18.00;58.30;;;;;;5039214;27;92328;-49
2023/10/06 03:05:53;;;;;;;;;;;18.00;58.30;;;;;;5039334;27;94072;-48
2023/10/06 03:08:22;;;;;;;;;;;18.00;58.30;;;;;;5038278;28;92599;-54
2023/10/06 03:10:48;;;;;;;;;;;18.00;58.30;;;;;;5039234;27;92301;-51
2023/10/06 03:13:43;;;;;;;;;;;17.90;58.20;;;;;;5038821;27;93207;-50
2023/10/06 03:16:11;;;;;;;;;;;17.90;58.30;;;;;;5037898;27;93171;-51
2023/10/06 03:18:37;;;;;;;;;;;18.00;58.20;;;;;;5039145;27;93943;-49
2023/10/06 03:23:38;;;;;;;;;;;17.90;58.30;;;;;;5035662;28;92021;-51
2023/10/06 03:26:04;;;;;;;;;;;17.90;58.30;;;;;;5039233;28;92131;-51
2023/10/06 03:28:36;;;;;;;;;;;17.90;58.30;;;;;;5038671;28;93140;-53
2023/10/06 03:33:49;;;;;;;;;;;17.90;58.40;;;;;;5035854;27;92610;-54
2023/10/06 03:36:26;;;;;;;;;;;17.90;58.40;;;;;;5038791;27;92182;-49
2023/10/06 03:38:55;;;;;;;;;;;17.90;58.40;;;;;;5038693;27;92557;-48
2023/10/06 03:41:26;;;;;;;;;;;17.80;58.40;;;;;;5037371;28;94200;-53
2023/10/06 03:43:53;;;;;;;;;;;17.80;58.40;;;;;;5038987;27;92173;-54
2023/10/06 03:46:19;;;;;;;;;;;17.80;58.40;;;;;;5036793;27;95275;-51
2023/10/06 03:48:45;;;;;;;;;;;17.80;58.50;;;;;;5038367;27;92069;-53
2023/10/06 03:51:11;;;;;;;;;;;17.80;58.50;;;;;;5038806;27;92123;-50
2023/10/06 03:53:36;;;;;;;;;;;17.80;58.60;;;;;;5040859;27;92540;-48
2023/10/06 03:56:02;;;;;;;;;;;17.80;58.50;;;;;;5038623;28;92864;-52
2023/10/06 03:58:28;;;;;;;;;;;17.80;58.50;;;;;;5038914;27;94034;-51
2023/10/06 04:00:54;;;;;;;;;;;17.80;58.50;;;;;;5037505;27;94543;-49
2023/10/06 04:03:21;;;;;;;;;;;17.80;58.50;;;;;;5038208;27;91973;-49
2023/10/06 04:05:50;;;;;;;;;;;17.70;58.50;;;;;;5038036;27;93526;-51
2023/10/06 04:08:21;;;;;;;;;;;17.70;58.50;;;;;;5039432;27;93541;-54
2023/10/06 04:10:48;;;;;;;;;;;17.70;58.50;;;;;;5041906;28;92605;-49
2023/10/06 04:13:16;;;;;;;;;;;17.70;58.50;;;;;;5041748;28;93892;-50
2023/10/06 04:15:57;;;;;;;;;;;17.70;58.50;;;;;;5044407;27;93310;-49
2023/10/06 04:18:23;;;;;;;;;;;17.70;58.50;;;;;;5039278;28;93691;-49
2023/10/06 04:20:49;;;;;;;;;;;17.70;58.50;;;;;;5041422;28;93573;-53
2023/10/06 04:23:17;;;;;;;;;;;17.70;58.50;;;;;;5042096;28;92006;-51
2023/10/06 04:25:43;;;;;;;;;;;17.70;58.50;;;;;;5041855;27;93151;-53
2023/10/06 04:28:08;;;;;;;;;;;17.70;58.60;;;;;;5035973;27;92564;-52
2023/10/06 04:30:38;;;;;;;;;;;17.70;58.60;;;;;;5038003;27;93409;-52
2023/10/06 04:33:04;;;;;;;;;;;17.70;58.60;;;;;;5038783;27;95395;-52
2023/10/06 04:35:32;;;;;;;;;;;17.60;58.60;;;;;;5041147;28;94426;-52
2023/10/06 04:38:01;;;;;;;;;;;17.60;58.70;;;;;;5042959;27;92628;-49
2023/10/06 04:40:27;;;;;;;;;;;17.60;58.60;;;;;;5038548;27;95196;-50
2023/10/06 04:42:52;;;;;;;;;;;17.60;58.60;;;;;;5037400;27;92972;-51
2023/10/06 04:45:18;;;;;;;;;;;17.60;58.60;;;;;;5041763;28;92421;-52
2023/10/06 04:47:43;;;;;;;;;;;17.60;58.60;;;;;;5040021;27;92430;-52
2023/10/06 04:50:09;;;;;;;;;;;17.60;58.70;;;;;;5037237;27;92320;-50
2023/10/06 04:52:39;;;;;;;;;;;17.60;58.70;;;;;;5041397;27;92579;-50
2023/10/06 04:55:05;;;;;;;;;;;17.60;58.80;;;;;;5035117;28;95658;-49
2023/10/06 04:57:31;;;;;;;;;;;17.50;58.70;;;;;;5038075;27;92962;-52
2023/10/06 04:59:58;;;;;;;;;;;17.50;58.70;;;;;;5042792;27;94112;-49
2023/10/06 05:02:24;;;;;;;;;;;17.50;58.70;;;;;;5040537;28;92104;-51
2023/10/06 05:04:53;;;;;;;;;;;17.50;58.70;;;;;;5040351;27;93892;-54
2023/10/06 05:07:18;;;;;;;;;;;17.50;58.70;;;;;;5038668;27;93159;-50
2023/10/06 05:09:44;;;;;;;;;;;17.50;58.70;;;;;;5039681;27;92071;-51
2023/10/06 05:12:14;;;;;;;;;;;17.50;58.80;;;;;;5041890;28;92150;-52
2023/10/06 05:14:39;;;;;;;;;;;17.50;58.80;;;;;;5040188;27;93589;-50
2023/10/06 05:17:05;;;;;;;;;;;17.50;58.80;;;;;;5038991;27;93899;-50
2023/10/06 05:19:34;;;;;;;;;;;17.50;58.80;;;;;;5041348;27;93922;-54
2023/10/06 05:22:03;;;;;;;;;;;17.50;58.80;;;;;;5037065;28;92091;-48
2023/10/06 05:24:29;;;;;;;;;;;17.50;58.90;;;;;;5039143;27;92962;-52
2023/10/06 05:26:55;;;;;;;;;;;17.50;58.80;;;;;;5039702;27;92387;-51
2023/10/06 05:29:20;;;;;;;;;;;17.40;58.90;;;;;;5037151;28;92359;-54
2023/10/06 05:31:46;;;;;;;;;;;17.40;58.80;;;;;;5041048;28;92116;-53
2023/10/06 05:34:16;;;;;;;;;;;17.40;58.80;;;;;;5038687;27;94715;-51
2023/10/06 05:36:43;;;;;;;;;;;17.40;58.90;;;;;;5038036;27;92195;-48
2023/10/06 05:39:11;;;;;;;;;;;17.40;58.90;;;;;;5035935;27;92220;-50
2023/10/06 05:41:40;;;;;;;;;;;17.40;58.90;;;;;;5043218;27;94569;-55
2023/10/06 05:44:08;;;;;;;;;;;17.40;58.80;;;;;;5040401;27;93098;-50
2023/10/06 05:46:34;;;;;;;;;;;17.40;58.80;;;;;;5038868;27;94789;-54
2023/10/06 05:49:03;;;;;;;;;;;17.40;58.90;;;;;;5040364;27;92252;-54
2023/10/06 05:51:29;;;;;;;;;;;17.40;58.90;;;;;;5039855;27;92886;-51
2023/10/06 05:53:56;;;;;;;;;;;17.40;58.90;;;;;;5037578;27;92839;-53
2023/10/06 05:56:23;;;;;;;;;;;17.40;59.00;;;;;;5038438;27;92336;-49
2023/10/06 05:58:49;;;;;;;;;;;17.40;58.90;;;;;;5040505;27;92899;-51
2023/10/06 06:01:18;;;;;;;;;;;17.40;58.80;;;;;;5039328;27;92812;-53
2023/10/06 06:03:47;;;;;;;;;;;17.40;58.80;;;;;;5040479;27;92222;-50
2023/10/06 06:06:14;;;;;;;;;;;17.40;59.50;;;;;;5038736;28;93621;-53
2023/10/06 06:08:43;;;;;;;;;;;17.40;58.90;;;;;;5039201;28;93087;-53
2023/10/06 06:11:09;;;;;;;;;;;17.40;58.90;;;;;;5034820;27;93354;-54
2023/10/06 06:13:38;;;;;;;;;;;17.40;58.90;;;;;;5037611;27;94389;-53
2023/10/06 06:16:07;;;;;;;;;;;17.40;58.90;;;;;;5037831;28;92198;-49
2023/10/06 06:18:33;;;;;;;;;;;17.30;58.90;;;;;;5040031;27;92422;-53
2023/10/06 06:21:03;;;;;;;;;;;17.40;58.90;;;;;;5037425;27;94656;-50
2023/10/06 06:23:33;;;;;;;;;;;17.40;59.00;;;;;;5039129;27;94021;-52
2023/10/06 06:25:59;;;;;;;;;;;17.30;58.80;;;;;;5040607;28;92561;-49
2023/10/06 06:28:25;;;;;;;;;;;17.40;58.90;;;;;;5039044;27;92112;-50
2023/10/06 06:30:51;;;;;;;;;;;17.40;58.90;;;;;;5036990;27;93149;-47
2023/10/06 06:33:19;;;;;;;;;;;17.30;58.80;;;;;;5036818;27;94267;-53
2023/10/06 06:35:45;;;;;;;;;;;17.40;58.90;;;;;;5035957;28;92242;-49
2023/10/06 06:38:12;;;;;;;;;;;17.30;58.80;;;;;;5040132;27;95381;-52
2023/10/06 06:40:38;;;;;;;;;;;17.30;58.80;;;;;;5036914;27;93124;-51
2023/10/06 06:43:07;;;;;;;;;;;17.40;59.00;;;;;;5035306;27;92314;-54
2023/10/06 06:45:39;;;;;;;;;;;17.30;59.50;;;;;;5039531;28;93842;-49
2023/10/06 06:48:16;;;;;;;;;;;17.40;59.00;;;;;;5036906;27;95370;-50
2023/10/06 06:50:46;;;;;;;;;;;17.40;58.90;;;;;;5038707;27;94062;-52
2023/10/06 06:53:12;;;;;;;;;;;17.30;58.90;;;;;;5035097;28;93314;-54
2023/10/06 06:55:37;;;;;;;;;;;17.40;58.90;;;;;;5038934;27;92178;-51
2023/10/06 06:58:10;;;;;;;;;;;17.40;58.90;;;;;;5039360;27;92974;-51
2023/10/06 07:00:38;;;;;;;;;;;17.40;59.00;;;;;;5034862;27;94253;-54
2023/10/06 07:03:04;;;;;;;;;;;17.40;59.00;;;;;;5038553;27;92265;-50
2023/10/06 07:05:30;;;;;;;;;;;17.40;59.00;;;;;;5041260;27;93948;-52
2023/10/06 07:07:56;;;;;;;;;;;17.40;59.10;;;;;;5036816;27;93556;-50
2023/10/06 07:10:25;;;;;;;;;;;17.40;59.00;;;;;;5040987;27;92224;-50
2023/10/06 07:12:51;;;;;;;;;;;17.40;59.10;;;;;;5038647;27;93749;-52
2023/10/06 07:15:19;;;;;;;;;;;17.40;59.10;;;;;;5037786;27;91938;-49
2023/10/06 07:17:50;;;;;;;;;;;17.40;58.90;;;;;;5036566;27;93692;-53
2023/10/06 07:20:16;;;;;;;;;;;17.40;59.00;;;;;;5038137;28;93561;-52
2023/10/06 07:22:46;;;;;;;;;;;17.40;58.90;;;;;;5038371;28;93141;-51
2023/10/06 07:25:12;;;;;;;;;;;17.40;59.00;;;;;;5036419;27;93095;-50
2023/10/06 07:27:38;;;;;;;;;;;17.50;59.10;;;;;;5039737;27;92590;-51
2023/10/06 07:30:05;;;;;;;;;;;17.40;59.00;;;;;;5041956;28;92247;-49
2023/10/06 07:32:31;;;;;;;;;;;17.40;59.00;;;;;;5038342;27;93189;-52
2023/10/06 07:34:56;;;;;;;;;;;17.50;59.20;;;;;;5036780;27;93989;-48
2023/10/06 07:37:22;;;;;;;;;;;17.40;59.10;;;;;;5036849;27;92323;-51
2023/10/06 07:39:47;;;;;;;;;;;17.50;59.10;;;;;;5038145;28;92398;-53
2023/10/06 07:42:16;;;;;;;;;;;17.50;59.70;;;;;;5038048;28;92240;-50
2023/10/06 07:44:42;;;;;;;;;;;17.50;59.10;;;;;;5035261;27;93823;-49
2023/10/06 07:47:08;;;;;;;;;;;17.50;59.10;;;;;;5034409;27;94042;-54
2023/10/06 07:49:34;;;;;;;;;;;17.50;59.20;;;;;;5038475;28;92142;-52
2023/10/06 07:52:00;;;;;;;;;;;17.50;59.20;;;;;;5042955;27;92523;-50
2023/10/06 07:54:26;;;;;;;;;;;17.50;59.20;;;;;;5035629;27;92230;-48
2023/10/06 07:56:52;;;;;;;;;;;17.50;59.40;;;;;;5034883;27;94126;-51
2023/10/06 07:59:17;;;;;;;;;;;17.50;59.30;;;;;;5038292;27;93295;-50
2023/10/06 08:01:43;;;;;;;;;;;17.50;59.30;;;;;;5036590;27;92677;-49
2023/10/06 08:04:09;;;;;;;;;;;17.50;59.40;;;;;;5036621;27;94403;-50
2023/10/06 08:06:36;;;;;;;;;;;17.50;59.40;;;;;;5034108;27;95098;-50
2023/10/06 08:09:05;;;;;;;;;;;17.50;59.20;;;;;;5038611;28;92466;-50
2023/10/06 08:11:33;;;;;;;;;;;17.50;59.30;;;;;;5035452;27;93918;-48
2023/10/06 08:13:59;;;;;;;;;;;17.50;59.30;;;;;;5038487;27;93320;-51
2023/10/06 08:16:30;;;;;;;;;;;17.50;59.20;;;;;;5038552;28;92589;-54
2023/10/06 08:18:55;;;;;;;;;;;17.50;59.10;;;;;;5037392;27;94553;-48
2023/10/06 08:21:22;;;;;;;;;;;17.50;59.20;;;;;;5031970;27;93094;-49
2023/10/06 08:23:48;;;;;;;;;;;17.50;59.10;;;;;;5036452;27;95375;-50
2023/10/06 08:26:14;;;;;;;;;;;17.50;59.10;;;;;;5037531;27;92685;-50
2023/10/06 08:28:40;;;;;;;;;;;17.50;59.10;;;;;;5038243;27;92486;-50
2023/10/06 08:31:13;;;;;;;;;;;17.50;59.20;;;;;;5036249;27;93556;-52
2023/10/06 08:33:40;;;;;;;;;;;17.50;59.20;;;;;;5035749;27;94625;-52
2023/10/06 08:36:08;;;;;;;;;;;17.50;59.20;;;;;;5040525;27;93164;-52
2023/10/06 08:38:33;;;;;;;;;;;17.50;59.20;;;;;;5033410;27;93224;-48
2023/10/06 08:41:02;;;;;;;;;;;17.50;59.20;;;;;;5035526;27;92222;-48
2023/10/06 08:43:28;;;;;;;;;;;17.50;59.20;;;;;;5033560;27;92948;-50
2023/10/06 08:45:55;;;;;;;;;;;17.50;59.20;;;;;;5037673;28;93283;-53
2023/10/06 08:48:25;;;;;;;;;;;17.50;59.10;;;;;;5039975;27;92920;-50
2023/10/06 08:50:53;;;;;;;;;;;17.50;59.10;;;;;;5033194;27;93928;-51
2023/10/06 08:53:20;;;;;;;;;;;17.50;59.10;;;;;;5035973;27;92442;-49
2023/10/06 08:55:45;;;;;;;;;;;17.50;59.10;;;;;;5040810;28;92213;-48
2023/10/06 08:58:14;;;;;;;;;;;17.50;59.20;;;;;;5042506;27;92904;-49
2023/10/06 09:00:43;;;;;;;;;;;17.50;59.30;;;;;;5038047;27;93175;-51
2023/10/06 09:03:11;;;;;;;;;;;17.50;59.20;;;;;;5035256;27;94314;-53
2023/10/06 09:05:40;;;;;;;;;;;17.50;59.30;;;;;;5040812;27;93251;-51
2023/10/06 09:08:09;;;;;;;;;;;17.50;59.30;;;;;;5039810;27;92142;-51
2023/10/06 09:10:36;;;;;;;;;;;17.50;59.40;;;;;;5040096;27;92597;-52
2023/10/06 09:13:06;;;;;;;;;;;17.60;59.50;;;;;;5038040;27;94604;-52
2023/10/06 09:15:32;;;;;;;;;;;17.50;59.40;;;;;;5041141;27;92113;-53
2023/10/06 09:17:59;;;;;;;;;;;17.50;59.40;;;;;;5041964;27;92672;-50
2023/10/06 09:20:29;;;;;;;;;;;17.50;59.40;;;;;;5039132;27;93405;-49
2023/10/06 09:22:55;;;;;;;;;;;17.50;59.40;;;;;;5040782;27;92866;-52
2023/10/06 09:25:21;;;;;;;;;;;17.50;59.40;;;;;;5039272;27;94450;-51
2023/10/06 09:27:48;;;;;;;;;;;17.60;59.50;;;;;;5041175;27;92255;-53
2023/10/06 09:30:20;;;;;;;;;;;17.60;59.60;;;;;;5039006;27;93959;-51
2023/10/06 09:32:46;;;;;;;;;;;17.60;59.60;;;;;;5040240;27;95270;-53
2023/10/06 09:35:22;;;;;;;;;;;17.60;59.60;;;;;;5038596;27;92160;-52
2023/10/06 09:37:48;;;;;;;;;;;17.60;59.60;;;;;;5038674;27;92293;-50
2023/10/06 09:40:23;;;;;;;;;;;17.60;59.60;;;;;;5040994;28;94709;-50
2023/10/06 09:42:49;;;;;;;;;;;17.60;59.60;;;;;;5037603;28;92566;-50
2023/10/06 09:45:17;;;;;;;;;;;17.60;59.60;;;;;;5037885;27;94799;-50
2023/10/06 09:47:50;;;;;;;;;;;17.60;59.60;;;;;;5038516;27;92168;-52
2023/10/06 09:50:21;;;;;;;;;;;17.60;59.60;;;;;;5039998;27;93046;-53
2023/10/06 09:52:48;;;;;;;;;;;17.60;59.70;;;;;;5036363;27;93061;-48
2023/10/06 09:55:15;;;;;;;;;;;17.60;59.70;;;;;;5038056;27;92187;-49
2023/10/06 09:57:42;;;;;;;;;;;17.60;59.60;;;;;;5035616;27;92507;-50
2023/10/06 10:00:15;;;;;;;;;;;17.60;59.70;;;;;;5039498;27;94570;-51
2023/10/06 10:02:44;;;;;;;;;;;17.60;59.60;;;;;;5038444;27;92189;-52
2023/10/06 10:05:11;;;;;;;;;;;17.60;59.70;;;;;;5035949;27;93902;-50
2023/10/06 10:07:40;;;;;;;;;;;17.60;59.60;;;;;;5040005;27;91704;-49
2023/10/06 10:10:06;;;;;;;;;;;17.60;59.70;;;;;;5040133;27;92972;-52
2023/10/06 10:12:32;;;;;;;;;;;17.60;59.70;;;;;;5037286;27;93182;-52
2023/10/06 10:14:57;;;;;;;;;;;17.60;59.70;;;;;;5038290;27;94125;-48
2023/10/06 10:17:43;;;;;;;;;;;17.60;59.80;;;;;;5040297;28;93502;-49
2023/10/06 10:20:10;;;;;;;;;;;17.70;59.70;;;;;;5034657;28;93417;-50
2023/10/06 10:22:35;;;;;;;;;;;17.60;59.70;;;;;;5040027;27;92077;-49
2023/10/06 10:25:01;;;;;;;;;;;17.70;59.80;;;;;;5039098;27;93032;-52
2023/10/06 10:27:30;;;;;;;;;;;17.70;59.80;;;;;;5035656;27;92204;-52
2023/10/06 10:29:55;;;;;;;;;;;17.70;59.90;;;;;;5038985;28;92515;-49
2023/10/06 10:32:24;;;;;;;;;;;17.70;59.80;;;;;;5038572;28;95722;-49
2023/10/06 10:35:18;;;;;;;;;;;17.70;59.70;;;;;;5036856;27;93171;-53
2023/10/06 10:37:55;;;;;;;;;;;17.70;59.70;;;;;;5035106;28;94411;-47
2023/10/06 10:40:22;;;;;;;;;;;17.70;59.70;;;;;;5038742;28;94223;-52
2023/10/06 10:42:51;;;;;;;;;;;17.70;59.80;;;;;;5037773;27;92192;-48
2023/10/06 10:45:31;;;;;;;;;;;17.70;59.80;;;;;;5036960;27;93656;-52
2023/10/06 10:47:58;;;;;;;;;;;17.70;59.80;;;;;;5041050;27;93192;-51
2023/10/06 10:50:47;;;;;;;;;;;17.70;59.80;;;;;;5035863;28;94237;-53
2023/10/06 10:53:14;;;;;;;;;;;17.70;59.80;;;;;;5038421;27;95918;-52
2023/10/06 10:55:40;;;;;;;;;;;17.70;59.30;;;;;;5038341;27;92153;-48
2023/10/06 10:58:06;;;;;;;;;;;17.80;59.90;;;;;;5039528;27;93093;-50
2023/10/06 11:00:33;;;;;;;;;;;17.80;59.80;;;;;;5038157;27;94608;-49
2023/10/06 11:02:59;;;;;;;;;;;17.80;59.80;;;;;;5036116;27;92264;-49
2023/10/06 11:05:26;;;;;;;;;;;17.80;59.80;;;;;;5037421;27;94073;-53
2023/10/06 11:07:54;;;;;;;;;;;17.80;59.70;;;;;;5034836;28;94402;-53
2023/10/06 11:10:22;;;;;;;;;;;17.80;60.40;;;;;;5040893;27;93793;-50
2023/10/06 11:12:50;;;;;;;;;;;17.80;59.80;;;;;;5036734;27;93189;-51
2023/10/06 11:15:28;;;;;;;;;;;17.80;60.30;;;;;;5036109;27;92494;-50
2023/10/06 11:18:04;;;;;;;;;;;17.80;59.70;;;;;;5031943;28;95932;-50
2023/10/06 11:20:34;;;;;;;;;;;17.80;59.60;;;;;;5035042;27;94277;-53
2023/10/06 11:23:00;;;;;;;;;;;17.90;59.80;;;;;;5041838;27;91900;-48
2023/10/06 11:25:27;;;;;;;;;;;17.80;59.70;;;;;;5038811;28;92103;-53
2023/10/06 11:28:08;;;;;;;;;;;17.90;59.70;;;;;;5036957;27;94381;-49
2023/10/06 11:30:38;;;;;;;;;;;17.90;59.70;;;;;;5038987;27;93217;-50
2023/10/06 11:33:08;;;;;;;;;;;17.90;59.60;;;;;;5034903;27;93529;-51
2023/10/06 11:35:34;;;;;;;;;;;17.90;59.60;;;;;;5036741;28;92047;-50
2023/10/06 11:38:04;;;;;;;;;;;17.90;59.60;;;;;;5037641;27;93051;-49
2023/10/06 11:40:31;;;;;;;;;;;17.90;59.60;;;;;;5033328;27;93326;-50
2023/10/06 11:43:08;;;;;;;;;;;17.90;59.50;;;;;;5037323;28;92958;-51
2023/10/06 11:45:36;;;;;;;;;;;17.90;59.50;;;;;;5038793;27;92803;-53
2023/10/06 11:48:02;;;;;;;;;;;17.90;59.50;;;;;;5034056;27;91596;-52
2023/10/06 11:50:32;;;;;;;;;;;17.90;59.50;;;;;;5036670;27;93949;-51
2023/10/06 11:53:01;;;;;;;;;;;18.00;59.40;;;;;;5037567;27;94167;-52
2023/10/06 11:55:34;;;;;;;;;;;18.00;59.40;;;;;;5037837;27;93571;-49
2023/10/06 11:58:04;;;;;;;;;;;18.00;59.50;;;;;;5034666;27;93604;-48
2023/10/06 12:00:34;;;;;;;;;;;18.00;59.40;;;;;;5035638;27;95028;-47
2023/10/06 12:03:00;;;;;;;;;;;18.00;59.40;;;;;;5037863;27;92502;-53
2023/10/06 12:05:26;;;;;;;;;;;18.00;59.40;;;;;;5036893;28;93969;-48
2023/10/06 12:07:52;;;;;;;;;;;18.00;59.40;;;;;;5033954;27;94429;-46
2023/10/06 12:10:18;;;;;;;;;;;18.00;59.30;;;;;;5033382;27;92305;-50
2023/10/06 12:12:45;;;;;;;;;;;18.00;59.40;;;;;;5038712;28;92644;-52
2023/10/06 12:15:13;;;;;;;;;;;18.00;59.30;;;;;;5039929;27;93050;-48
2023/10/06 12:17:38;;;;;;;;;;;18.00;59.20;;;;;;5035983;27;94071;-50
2023/10/06 12:20:05;;;;;;;;;;;18.00;59.10;;;;;;5036191;27;94214;-50
2023/10/06 12:22:31;;;;;;;;;;;18.00;59.10;;;;;;5034745;28;92152;-51
2023/10/06 12:24:57;;;;;;;;;;;18.00;59.10;;;;;;5036730;27;94156;-50
2023/10/06 12:27:22;;;;;;;;;;;18.10;59.10;;;;;;5034022;27;95587;-49
2023/10/06 12:29:48;;;;;;;;;;;18.10;59.00;;;;;;5037653;27;92158;-51
2023/10/06 12:32:14;;;;;;;;;;;18.10;59.00;;;;;;5041599;27;92884;-52
2023/10/06 12:34:39;;;;;;;;;;;18.10;58.90;;;;;;5039560;27;93774;-48
2023/10/06 12:37:07;;;;;;;;;;;18.10;58.90;;;;;;5042901;27;91598;-51
2023/10/06 12:39:35;;;;;;;;;;;18.10;59.40;;;;;;5037107;27;93301;-50
2023/10/06 12:42:03;;;;;;;;;;;18.10;58.70;;;;;;5041089;28;92716;-52
2023/10/06 12:44:29;;;;;;;;;;;18.10;58.70;;;;;;5039168;27;94279;-49
2023/10/06 12:46:55;;;;;;;;;;;18.10;58.50;;;;;;5042326;27;94005;-51
2023/10/06 12:49:23;;;;;;;;;;;18.10;58.30;;;;;;5041036;28;92550;-52
2023/10/06 12:51:49;;;;;;;;;;;18.10;58.10;;;;;;5037665;28;92553;-49
2023/10/06 12:54:15;;;;;;;;;;;18.10;58.00;;;;;;5038901;27;93345;-48
2023/10/06 12:56:44;;;;;;;;;;;18.10;58.10;;;;;;5037678;27;92367;-50
2023/10/06 12:59:12;;;;;;;;;;;18.10;58.10;;;;;;5043388;28;92858;-50
2023/10/06 13:01:38;;;;;;;;;;;18.20;57.90;;;;;;5040321;27;91421;-54
2023/10/06 13:04:05;;;;;;;;;;;18.20;58.40;;;;;;5039198;27;92943;-50
2023/10/06 13:06:31;;;;;;;;;;;18.20;57.80;;;;;;5037733;27;93309;-52
2023/10/06 13:09:01;;;;;;;;;;;18.10;57.70;;;;;;5040853;28;93255;-51
2023/10/06 13:11:27;;;;;;;;;;;18.20;57.70;;;;;;5043052;27;93518;-50
2023/10/06 13:13:52;;;;;;;;;;;18.10;57.60;;;;;;5037381;27;96216;-51
2023/10/06 13:16:18;;;;;;;;;;;18.20;57.40;;;;;;5040107;28;92231;-47
2023/10/06 13:18:44;;;;;;;;;;;18.20;57.60;;;;;;5037337;28;92568;-52
2023/10/06 13:21:10;;;;;;;;;;;18.20;57.50;;;;;;5042612;27;93130;-51
2023/10/06 13:23:36;;;;;;;;;;;18.20;57.30;;;;;;5039927;27;92908;-54
2023/10/06 13:26:02;;;;;;;;;;;18.20;57.00;;;;;;5039781;27;92731;-49
2023/10/06 13:28:28;;;;;;;;;;;18.20;57.10;;;;;;5040744;27;92259;-51
2023/10/06 13:30:54;;;;;;;;;;;18.20;57.10;;;;;;5039595;27;92723;-51
2023/10/06 13:33:20;;;;;;;;;;;18.20;57.20;;;;;;5037573;27;93407;-52
2023/10/06 13:35:47;;;;;;;;;;;18.20;57.10;;;;;;5038070;28;92295;-50
2023/10/06 13:38:13;;;;;;;;;;;18.20;57.00;;;;;;5040430;28;93695;-47
2023/10/06 13:40:39;;;;;;;;;;;18.30;57.00;;;;;;5041014;27;93091;-53
2023/10/06 13:43:10;;;;;;;;;;;18.20;56.80;;;;;;5035997;27;92664;-51
2023/10/06 13:45:39;;;;;;;;;;;18.30;56.70;;;;;;5039826;28;93187;-49
2023/10/06 13:48:05;;;;;;;;;;;18.30;56.70;;;;;;5036102;28;92303;-51
2023/10/06 13:50:31;;;;;;;;;;;18.30;56.70;;;;;;5037984;27;94248;-52
2023/10/06 13:52:56;;;;;;;;;;;18.30;56.90;;;;;;5036620;27;92308;-52
2023/10/06 13:55:24;;;;;;;;;;;18.20;56.80;;;;;;5039894;28;92125;-50
2023/10/06 13:57:54;;;;;;;;;;;18.30;56.90;;;;;;5038362;27;93209;-49
2023/10/06 14:00:29;;;;;;;;;;;18.30;56.50;;;;;;5038558;27;94740;-49
2023/10/06 14:02:57;;;;;;;;;;;18.30;56.80;;;;;;5043208;27;92533;-51
2023/10/06 14:05:23;;;;;;;;;;;18.30;56.60;;;;;;5039584;27;93625;-52
2023/10/06 14:07:49;;;;;;;;;;;18.30;56.40;;;;;;5038351;27;92256;-51
2023/10/06 14:10:21;;;;;;;;;;;18.30;56.30;;;;;;5036849;27;92439;-49
2023/10/06 14:12:53;;;;;;;;;;;18.30;56.60;;;;;;5039532;27;94441;-52
2023/10/06 14:15:22;;;;;;;;;;;18.40;56.40;;;;;;5040226;27;91466;-52
2023/10/06 14:17:48;;;;;;;;;;;18.40;56.10;;;;;;5037800;27;93180;-52
2023/10/06 14:20:23;;;;;;;;;;;18.40;56.30;;;;;;5036244;27;93710;-51
2023/10/06 14:22:52;;;;;;;;;;;18.30;56.40;;;;;;5039317;27;92975;-52
2023/10/06 14:25:21;;;;;;;;;;;18.40;56.00;;;;;;5040969;27;94984;-49
2023/10/06 14:27:49;;;;;;;;;;;18.40;56.00;;;;;;5037663;27;92328;-50
2023/10/06 14:30:20;;;;;;;;;;;18.40;56.30;;;;;;5036003;28;92391;-51
2023/10/06 14:33:06;;;;;;;;;;;18.40;55.80;;;;;;5039111;27;94330;-50